createdAt,value
2019-03-05T00:01:56.238Z,63.79
2019-03-05T00:04:27.392Z,63.91
2019-03-05T00:06:58.846Z,63.34
2019-03-05T00:09:29.975Z,63.26
2019-03-05T00:12:00.929Z,63.24
2019-03-05T00:14:31.972Z,63.27
2019-03-05T00:17:03.265Z,62.65
2019-03-05T00:19:34.573Z,63.34
2019-03-05T00:22:05.777Z,63.34
2019-03-05T00:25:15.361Z,62.73
2019-03-05T00:28:18.896Z,63.12
2019-03-05T00:31:12.964Z,63.59
2019-03-05T00:34:19.329Z,63.24
2019-03-05T00:37:03.614Z,63.20
2019-03-05T00:40:12.724Z,62.85
2019-03-05T00:43:11.202Z,62.55
2019-03-05T00:46:36.889Z,62.40
2019-03-05T00:49:41.406Z,62.18
2019-03-05T00:52:53.835Z,62.68
2019-03-05T00:56:49.396Z,62.51
2019-03-05T01:00:18.301Z,63.09
2019-03-05T01:03:19.518Z,63.00
2019-03-05T01:06:26.733Z,64.26
2019-03-05T01:08:58.230Z,64.26
2019-03-05T01:11:29.420Z,64.24
2019-03-05T01:14:00.818Z,63.68
2019-03-05T01:16:34.362Z,63.40
2019-03-05T01:19:05.469Z,63.48
2019-03-05T01:21:36.526Z,63.87
2019-03-05T01:24:07.684Z,63.34
2019-03-05T01:26:39.313Z,63.96
2019-03-05T01:29:10.336Z,63.49
2019-03-05T01:32:19.225Z,63.02
2019-03-05T01:35:09.179Z,62.88
2019-03-05T01:37:40.603Z,62.86
2019-03-05T01:40:29.561Z,62.90
2019-03-05T01:43:00.624Z,63.01
2019-03-05T01:45:31.928Z,63.34
2019-03-05T01:48:03.412Z,63.12
2019-03-05T01:50:34.710Z,62.77
2019-03-05T01:53:06.098Z,63.14
2019-03-05T01:55:37.589Z,63.45
2019-03-05T01:58:08.802Z,63.32
2019-03-05T02:00:39.791Z,63.48
2019-03-05T02:03:10.997Z,63.87
2019-03-05T02:05:42.044Z,63.80
2019-03-05T02:08:13.166Z,63.25
2019-03-05T02:10:44.609Z,63.80
2019-03-05T02:13:16.213Z,63.82
2019-03-05T02:15:47.464Z,63.92
2019-03-05T02:18:20.965Z,64.64
2019-03-05T02:20:52.016Z,64.88
2019-03-05T02:24:07.321Z,64.63
2019-03-05T02:27:50.322Z,65.70
2019-03-05T02:31:29.692Z,65.22
2019-03-05T02:34:24.354Z,64.63
2019-03-05T02:37:53.219Z,64.02
2019-03-05T02:41:30.831Z,64.48
2019-03-05T02:45:05.562Z,64.58
2019-03-05T02:48:26.401Z,63.86
2019-03-05T02:51:36.773Z,63.65
2019-03-05T02:55:16.296Z,63.05
2019-03-05T02:57:45.528Z,63.20
2019-03-05T03:00:23.952Z,62.85
2019-03-05T03:03:01.758Z,62.47
2019-03-05T03:05:43.130Z,62.89
2019-03-05T03:08:14.497Z,62.65
2019-03-05T03:10:46.302Z,62.82
2019-03-05T03:13:17.825Z,62.77
2019-03-05T03:15:49.375Z,62.92
2019-03-05T03:18:21.697Z,62.96
2019-03-05T03:20:53.308Z,62.82
2019-03-05T03:23:24.383Z,63.09
2019-03-05T03:25:55.888Z,63.24
2019-03-05T03:28:27.085Z,63.15
2019-03-05T03:30:58.187Z,63.15
2019-03-05T03:33:29.666Z,63.58
2019-03-05T03:36:01.077Z,65.08
2019-03-05T03:38:32.390Z,65.84
2019-03-05T03:41:03.873Z,65.13
2019-03-05T03:43:35.096Z,64.63
2019-03-05T03:46:06.239Z,64.56
2019-03-05T03:48:37.302Z,63.78
2019-03-05T03:51:08.362Z,63.65
2019-03-05T03:53:39.697Z,64.13
2019-03-05T03:56:10.817Z,64.14
2019-03-05T03:58:41.960Z,63.79
2019-03-05T04:01:13.428Z,63.50
2019-03-05T04:03:44.656Z,63.86
2019-03-05T04:06:15.954Z,63.53
2019-03-05T04:08:47.203Z,64.34
2019-03-05T04:11:18.503Z,63.90
2019-03-05T04:13:49.795Z,64.18
2019-03-05T04:16:22.025Z,63.83
2019-03-05T04:18:52.987Z,62.90
2019-03-05T04:21:23.952Z,63.61
2019-03-05T04:23:55.171Z,64.08
2019-03-05T04:26:26.497Z,64.27
2019-03-05T04:28:57.516Z,64.61
2019-03-05T04:31:28.516Z,63.76
2019-03-05T04:34:00.048Z,63.52
2019-03-05T04:36:31.028Z,63.34
2019-03-05T04:39:02.524Z,63.50
2019-03-05T04:41:34.771Z,63.74
2019-03-05T04:44:06.036Z,63.79
2019-03-05T04:46:40.329Z,63.33
2019-03-05T04:49:29.166Z,63.67
2019-03-05T04:52:03.498Z,63.80
2019-03-05T04:54:34.720Z,63.50
2019-03-05T04:57:05.868Z,63.44
2019-03-05T04:59:37.431Z,63.28
2019-03-05T05:02:08.503Z,62.90
2019-03-05T05:04:40.363Z,63.35
2019-03-05T05:07:11.415Z,62.60
2019-03-05T05:09:42.883Z,62.70
2019-03-05T05:12:14.117Z,62.69
2019-03-05T05:14:45.317Z,63.10
2019-03-05T05:17:16.376Z,62.81
2019-03-05T05:19:47.350Z,62.53
2019-03-05T05:22:18.452Z,62.24
2019-03-05T05:24:49.615Z,62.69
2019-03-05T05:27:22.413Z,62.34
2019-03-05T05:29:53.471Z,62.69
2019-03-05T05:32:24.779Z,62.51
2019-03-05T05:34:56.593Z,62.67
2019-03-05T05:37:27.583Z,62.20
2019-03-05T05:40:23.081Z,63.09
2019-03-05T05:42:54.670Z,62.31
2019-03-05T05:45:28.898Z,63.17
2019-03-05T05:48:00.099Z,62.92
2019-03-05T05:50:31.316Z,62.77
2019-03-05T05:53:02.325Z,62.50
2019-03-05T05:55:33.298Z,62.53
2019-03-05T05:58:05.501Z,62.75
2019-03-05T06:00:40.899Z,62.79
2019-03-05T06:03:15.092Z,62.17
2019-03-05T06:05:46.593Z,61.93
2019-03-05T06:08:17.934Z,61.49
2019-03-05T06:10:49.243Z,61.81
2019-03-05T06:13:20.312Z,62.29
2019-03-05T06:15:52.247Z,62.95
2019-03-05T06:18:23.222Z,62.92
2019-03-05T06:20:54.701Z,63.14
2019-03-05T06:23:25.763Z,62.59
2019-03-05T06:25:57.458Z,61.83
2019-03-05T06:28:29.075Z,62.19
2019-03-05T06:31:00.536Z,62.73
2019-03-05T06:33:32.092Z,62.95
2019-03-05T06:36:03.383Z,62.83
2019-03-05T06:38:34.631Z,63.62
2019-03-05T06:41:11.203Z,63.59
2019-03-05T06:43:44.754Z,63.99
2019-03-05T06:46:16.091Z,64.11
2019-03-05T06:48:48.387Z,63.88
2019-03-05T06:51:19.933Z,64.13
2019-03-05T06:53:52.259Z,65.09
2019-03-05T06:56:23.667Z,65.14
2019-03-05T06:58:54.709Z,65.26
2019-03-05T07:01:26.163Z,65.22
2019-03-05T07:03:57.515Z,65.24
2019-03-05T07:06:57.375Z,64.66
2019-03-05T07:10:17.338Z,65.34
2019-03-05T07:13:00.630Z,65.88
2019-03-05T07:16:00.512Z,65.70
2019-03-05T07:18:46.299Z,65.15
2019-03-05T07:22:12.762Z,64.44
2019-03-05T07:24:52.221Z,64.45
2019-03-05T07:27:40.963Z,64.16
2019-03-05T07:30:23.095Z,63.89
2019-03-05T07:32:55.068Z,63.92
2019-03-05T07:35:31.382Z,63.08
2019-03-05T07:38:02.724Z,62.41
2019-03-05T07:40:33.766Z,63.06
2019-03-05T07:43:05.009Z,62.53
2019-03-05T07:45:36.136Z,61.73
2019-03-05T07:48:07.511Z,60.88
2019-03-05T07:50:38.962Z,61.08
2019-03-05T07:53:09.953Z,60.99
2019-03-05T07:55:40.919Z,60.56
2019-03-05T07:58:11.911Z,59.72
2019-03-05T08:00:42.935Z,59.28
2019-03-05T08:03:14.664Z,58.73
2019-03-05T08:05:47.520Z,59.11
2019-03-05T08:09:13.388Z,58.35
2019-03-05T08:11:44.838Z,58.18
2019-03-05T08:15:01.910Z,57.92
2019-03-05T08:17:33.501Z,58.21
2019-03-05T08:20:05.371Z,58.67
2019-03-05T08:22:36.724Z,58.44
2019-03-05T08:25:09.578Z,58.42
2019-03-05T08:27:40.796Z,58.20
2019-03-05T08:30:15.023Z,58.56
2019-03-05T08:32:46.207Z,58.18
2019-03-05T08:35:17.271Z,56.78
2019-03-05T08:37:48.480Z,55.74
2019-03-05T08:40:19.685Z,57.01
2019-03-05T08:42:51.990Z,55.15
2019-03-05T08:45:29.190Z,55.06
2019-03-05T08:47:57.174Z,55.78
2019-03-05T08:50:28.153Z,55.99
2019-03-05T08:53:00.332Z,55.17
2019-03-05T08:55:32.935Z,55.55
2019-03-05T08:58:04.261Z,55.55
2019-03-05T09:00:35.862Z,55.33
2019-03-05T09:03:07.028Z,54.29
2019-03-05T09:05:38.071Z,53.29
2019-03-05T09:08:09.849Z,52.32
2019-03-05T09:10:40.996Z,51.07
2019-03-05T09:13:12.778Z,52.87
2019-03-05T09:15:43.986Z,52.48
2019-03-05T09:18:15.770Z,50.08
2019-03-05T09:20:47.474Z,50.92
2019-03-05T09:23:18.815Z,50.18
2019-03-05T09:25:50.538Z,50.06
2019-03-05T09:28:22.511Z,48.07
2019-03-05T09:30:53.882Z,49.38
2019-03-05T09:33:24.890Z,49.33
2019-03-05T09:35:56.281Z,48.96
2019-03-05T09:38:29.163Z,49.44
2019-03-05T09:41:01.366Z,50.41
2019-03-05T09:43:32.691Z,50.14
2019-03-05T09:46:04.105Z,50.48
2019-03-05T09:48:35.371Z,50.01
2019-03-05T09:51:06.605Z,48.54
2019-03-05T09:53:37.804Z,48.34
2019-03-05T09:56:08.900Z,48.92
2019-03-05T09:58:41.633Z,49.18
2019-03-05T10:01:13.015Z,48.79
2019-03-05T10:03:44.536Z,48.17
2019-03-05T10:06:16.045Z,46.92
2019-03-05T10:08:47.422Z,47.30
2019-03-05T10:11:19.355Z,46.72
2019-03-05T10:13:50.626Z,47.90
2019-03-05T10:16:22.055Z,49.10
2019-03-05T10:18:53.521Z,49.18
2019-03-05T10:21:24.886Z,46.65
2019-03-05T10:23:56.129Z,46.62
2019-03-05T10:26:29.184Z,47.77
2019-03-05T10:29:00.645Z,47.08
2019-03-05T10:31:33.285Z,47.40
2019-03-05T10:34:06.557Z,47.49
2019-03-05T10:36:37.528Z,47.17
2019-03-05T10:39:30.788Z,49.22
2019-03-05T10:42:03.706Z,50.43
2019-03-05T10:44:35.337Z,50.96
2019-03-05T10:47:06.774Z,50.81
2019-03-05T10:49:40.128Z,52.13
2019-03-05T10:52:12.257Z,50.42
2019-03-05T10:54:44.180Z,49.42
2019-03-05T10:57:16.223Z,50.34
2019-03-05T10:59:47.835Z,50.67
2019-03-05T11:02:19.676Z,50.80
2019-03-05T11:04:52.384Z,50.58
2019-03-05T11:07:23.897Z,50.00
2019-03-05T11:09:55.796Z,50.03
2019-03-05T11:12:27.582Z,50.59
2019-03-05T11:14:59.653Z,50.16
2019-03-05T11:17:31.065Z,52.06
2019-03-05T11:20:02.409Z,50.88
2019-03-05T11:22:33.477Z,50.49
2019-03-05T11:25:04.739Z,49.66
2019-03-05T11:27:37.260Z,50.27
2019-03-05T11:30:12.328Z,51.16
2019-03-05T11:32:44.214Z,49.68
2019-03-05T11:35:19.133Z,49.37
2019-03-05T11:37:51.306Z,49.62
2019-03-05T11:40:22.773Z,50.28
2019-03-05T11:42:54.962Z,50.64
2019-03-05T11:45:27.391Z,50.57
2019-03-05T11:47:58.959Z,51.25
2019-03-05T11:50:30.419Z,51.06
2019-03-05T11:53:06.020Z,52.08
2019-03-05T11:55:37.490Z,51.80
2019-03-05T11:58:08.633Z,51.74
2019-03-05T12:00:57.191Z,52.35
2019-03-05T12:03:28.791Z,52.06
2019-03-05T12:05:59.898Z,53.42
2019-03-05T12:08:31.848Z,53.16
2019-03-05T12:11:02.986Z,52.17
2019-03-05T12:13:34.707Z,53.20
2019-03-05T12:16:15.171Z,53.56
2019-03-05T12:18:45.494Z,54.21
2019-03-05T12:21:16.979Z,54.88
2019-03-05T12:23:48.423Z,53.80
2019-03-05T12:26:19.779Z,53.64
2019-03-05T12:28:51.655Z,54.50
2019-03-05T12:31:23.602Z,55.52
2019-03-05T12:33:54.665Z,55.60
2019-03-05T12:36:25.993Z,56.19
2019-03-05T12:38:56.969Z,55.22
2019-03-05T12:41:28.727Z,56.16
2019-03-05T12:43:59.760Z,55.98
2019-03-05T12:46:30.777Z,55.78
2019-03-05T12:49:02.461Z,55.50
2019-03-05T12:51:33.959Z,55.53
2019-03-05T12:54:05.355Z,54.88
2019-03-05T12:56:37.312Z,55.68
2019-03-05T12:59:08.635Z,56.69
2019-03-05T13:01:40.159Z,56.96
2019-03-05T13:04:11.465Z,56.96
2019-03-05T13:06:43.191Z,57.68
2019-03-05T13:09:19.657Z,57.54
2019-03-05T13:11:51.003Z,58.47
2019-03-05T13:14:22.653Z,57.68
2019-03-05T13:16:53.642Z,57.64
2019-03-05T13:19:24.986Z,58.55
2019-03-05T13:21:56.441Z,58.02
2019-03-05T13:24:27.455Z,58.50
2019-03-05T13:26:59.736Z,58.98
2019-03-05T13:29:30.755Z,58.65
2019-03-05T13:32:02.228Z,60.40
2019-03-05T13:34:33.567Z,60.95
2019-03-05T13:37:05.138Z,62.01
2019-03-05T13:39:36.216Z,61.71
2019-03-05T13:42:07.994Z,63.28
2019-03-05T13:44:39.053Z,63.55
2019-03-05T13:47:13.338Z,63.75
2019-03-05T13:50:28.290Z,63.21
2019-03-05T13:53:39.967Z,63.64
2019-03-05T13:56:58.938Z,63.88
2019-03-05T13:59:51.954Z,64.67
2019-03-05T14:02:32.277Z,65.12
2019-03-05T14:05:50.079Z,65.64
2019-03-05T14:09:12.854Z,66.18
2019-03-05T14:11:44.954Z,66.30
2019-03-05T14:14:31.032Z,65.99
2019-03-05T14:17:19.868Z,65.91
2019-03-05T14:19:59.166Z,67.59
2019-03-05T14:22:30.252Z,67.13
2019-03-05T14:25:03.057Z,67.50
2019-03-05T14:27:34.116Z,67.61
2019-03-05T14:30:06.672Z,67.70
2019-03-05T14:32:37.773Z,66.96
2019-03-05T14:35:14.208Z,67.72
2019-03-05T14:37:45.839Z,67.26
2019-03-05T14:40:24.547Z,67.37
2019-03-05T14:42:55.060Z,67.69
2019-03-05T14:45:29.139Z,66.93
2019-03-05T14:48:02.238Z,68.26
2019-03-05T14:50:34.518Z,67.80
2019-03-05T14:53:06.169Z,68.06
2019-03-05T14:55:38.960Z,68.84
2019-03-05T14:58:10.377Z,68.66
2019-03-05T15:00:41.656Z,68.44
2019-03-05T15:03:12.766Z,69.22
2019-03-05T15:05:45.389Z,69.19
2019-03-05T15:08:17.432Z,68.44
2019-03-05T15:10:48.551Z,69.43
2019-03-05T15:13:20.505Z,69.91
2019-03-05T15:15:51.620Z,69.52
2019-03-05T15:18:23.048Z,69.16
2019-03-05T15:20:54.260Z,68.85
2019-03-05T15:23:26.166Z,68.73
2019-03-05T15:25:57.495Z,67.90
2019-03-05T15:28:29.317Z,67.79
2019-03-05T15:31:01.115Z,68.57
2019-03-05T15:33:32.114Z,69.72
2019-03-05T15:36:03.432Z,68.99
2019-03-05T15:38:34.803Z,68.95
2019-03-05T15:41:06.240Z,68.67
2019-03-05T15:43:37.347Z,68.27
2019-03-05T15:46:09.131Z,68.59
2019-03-05T15:48:40.430Z,67.42
2019-03-05T15:51:12.000Z,67.56
2019-03-05T15:56:15.092Z,67.19
2019-03-05T15:58:46.121Z,67.96
2019-03-05T16:01:22.182Z,67.48
2019-03-05T16:03:50.728Z,68.50
2019-03-05T16:06:21.739Z,68.48
2019-03-05T16:08:52.720Z,68.38
2019-03-05T16:11:24.582Z,68.21
2019-03-05T16:13:56.825Z,67.87
2019-03-05T16:16:29.118Z,68.50
2019-03-05T16:19:00.981Z,68.56
2019-03-05T16:21:32.620Z,67.84
2019-03-05T16:24:03.886Z,68.10
2019-03-05T16:26:35.013Z,67.61
2019-03-05T16:29:06.144Z,69.08
2019-03-05T16:31:57.284Z,68.89
2019-03-05T16:34:46.875Z,68.44
2019-03-05T16:37:31.135Z,68.25
2019-03-05T16:40:18.616Z,68.41
2019-03-05T16:43:21.521Z,69.02
2019-03-05T16:46:20.667Z,69.36
2019-03-05T16:49:11.070Z,68.98
2019-03-05T16:51:51.098Z,68.51
2019-03-05T16:54:28.901Z,68.92
2019-03-05T16:57:18.834Z,69.05
2019-03-05T17:00:09.061Z,69.40
2019-03-05T17:03:05.373Z,69.24
2019-03-05T17:05:50.481Z,70.01
2019-03-05T17:08:35.923Z,70.06
2019-03-05T17:11:21.575Z,69.37
2019-03-05T17:13:53.227Z,70.10
2019-03-05T17:16:25.679Z,69.14
2019-03-05T17:18:56.999Z,69.27
2019-03-05T17:21:29.703Z,68.72
2019-03-05T17:24:00.770Z,68.42
2019-03-05T17:26:32.703Z,68.00
2019-03-05T17:29:04.125Z,69.12
2019-03-05T17:31:35.264Z,68.86
2019-03-05T17:34:06.356Z,69.50
2019-03-05T17:36:37.665Z,69.84
2019-03-05T17:39:17.129Z,70.08
2019-03-05T17:41:48.823Z,70.11
2019-03-05T17:44:20.118Z,70.69
2019-03-05T17:46:51.804Z,70.51
2019-03-05T17:49:23.464Z,69.87
2019-03-05T17:51:54.521Z,69.26
2019-03-05T17:54:26.278Z,70.06
2019-03-05T17:56:57.714Z,70.79
2019-03-05T17:59:29.577Z,69.64
2019-03-05T18:02:00.614Z,69.61
2019-03-05T18:04:32.048Z,69.15
2019-03-05T18:07:03.576Z,68.95
2019-03-05T18:09:34.652Z,69.27
2019-03-05T18:12:06.306Z,69.79
2019-03-05T18:14:37.946Z,69.20
2019-03-05T18:17:09.516Z,68.70
2019-03-05T18:19:41.162Z,69.05
2019-03-05T18:22:12.123Z,69.02
2019-03-05T18:24:43.192Z,69.43
2019-03-05T18:27:14.311Z,69.41
2019-03-05T18:29:46.220Z,70.64
2019-03-05T18:32:17.501Z,69.49
2019-03-05T18:34:48.748Z,69.58
2019-03-05T18:37:20.060Z,69.10
2019-03-05T18:39:52.357Z,69.74
2019-03-05T18:42:24.036Z,69.45
2019-03-05T18:44:55.456Z,69.39
2019-03-05T18:47:26.771Z,69.02
2019-03-05T18:49:58.194Z,69.13
2019-03-05T18:52:30.391Z,69.23
2019-03-05T18:55:02.581Z,68.88
2019-03-05T18:57:35.825Z,68.86
2019-03-05T19:00:11.341Z,69.37
2019-03-05T19:02:44.036Z,69.27
2019-03-05T19:05:16.289Z,69.38
2019-03-05T19:07:47.412Z,69.12
2019-03-05T19:10:28.648Z,69.24
2019-03-05T19:13:01.997Z,68.73
2019-03-05T19:15:33.584Z,69.32
2019-03-05T19:18:05.109Z,68.98
2019-03-05T19:20:36.574Z,69.19
2019-03-05T19:23:07.622Z,68.94
2019-03-05T19:25:38.968Z,68.90
2019-03-05T19:28:11.505Z,68.49
2019-03-05T19:30:42.768Z,68.43
2019-03-05T19:33:13.912Z,68.41
2019-03-05T19:35:45.407Z,68.17
2019-03-05T19:38:16.808Z,68.44
2019-03-05T19:40:48.126Z,68.30
2019-03-05T19:43:19.416Z,68.81
2019-03-05T19:45:50.509Z,68.74
2019-03-05T19:48:21.796Z,68.25
2019-03-05T19:50:53.485Z,68.67
2019-03-05T19:53:24.769Z,68.24
2019-03-05T19:55:55.965Z,68.18
2019-03-05T19:58:27.210Z,68.82
2019-03-05T20:01:04.736Z,68.54
2019-03-05T20:03:36.146Z,68.52
2019-03-05T20:06:08.727Z,67.94
2019-03-05T20:08:40.544Z,67.83
2019-03-05T20:11:11.814Z,67.80
2019-03-05T20:13:43.178Z,68.09
2019-03-05T20:16:17.185Z,67.95
2019-03-05T20:18:48.526Z,68.00
2019-03-05T20:21:19.644Z,67.85
2019-03-05T20:23:50.917Z,68.22
2019-03-05T20:26:22.018Z,68.53
2019-03-05T20:28:53.552Z,68.06
2019-03-05T20:31:25.092Z,67.88
2019-03-05T20:33:57.039Z,68.05
2019-03-05T20:36:28.075Z,68.23
2019-03-05T20:39:00.883Z,67.81
2019-03-05T20:41:33.936Z,68.12
2019-03-05T20:44:05.739Z,68.34
2019-03-05T20:46:37.494Z,68.10
2019-03-05T20:49:08.765Z,69.10
2019-03-05T20:51:40.843Z,68.27
2019-03-05T20:54:13.269Z,68.49
2019-03-05T20:56:44.802Z,68.37
2019-03-05T20:59:16.055Z,68.15
2019-03-05T21:01:48.257Z,68.17
2019-03-05T21:04:19.691Z,68.20
2019-03-05T21:06:50.774Z,68.12
2019-03-05T21:09:23.915Z,68.25
2019-03-05T21:11:55.392Z,68.45
2019-03-05T21:14:26.858Z,68.02
2019-03-05T21:16:58.462Z,68.66
2019-03-05T21:19:30.078Z,69.06
2019-03-05T21:22:01.997Z,68.43
2019-03-05T21:24:33.437Z,68.45
2019-03-05T21:27:04.848Z,68.55
2019-03-05T21:29:36.178Z,68.13
2019-03-05T21:32:07.183Z,68.10
2019-03-05T21:34:38.542Z,68.08
2019-03-05T21:37:09.867Z,68.19
2019-03-05T21:39:41.518Z,68.05
2019-03-05T21:42:13.178Z,68.41
2019-03-05T21:44:44.423Z,68.71
2019-03-05T21:47:15.896Z,68.85
2019-03-05T21:49:47.354Z,68.80
2019-03-05T21:52:19.085Z,68.45
2019-03-05T21:54:50.447Z,68.55
2019-03-05T21:57:21.794Z,68.44
2019-03-05T21:59:53.845Z,69.04
2019-03-05T22:02:24.823Z,68.68
2019-03-05T22:04:56.642Z,68.25
2019-03-05T22:07:28.023Z,68.81
2019-03-05T22:10:00.479Z,68.69
2019-03-05T22:12:31.968Z,68.27
2019-03-05T22:15:03.503Z,68.52
2019-03-05T22:17:36.115Z,68.62
2019-03-05T22:20:09.201Z,68.52
2019-03-05T22:22:41.005Z,68.13
2019-03-05T22:25:14.907Z,68.06
2019-03-05T22:27:46.353Z,68.84
2019-03-05T22:30:23.567Z,68.95
2019-03-05T22:32:54.876Z,68.91
2019-03-05T22:35:26.848Z,68.86
2019-03-05T22:37:58.306Z,69.12
2019-03-05T22:40:30.462Z,69.10
2019-03-05T22:43:01.731Z,68.50
2019-03-05T22:45:32.889Z,68.50
2019-03-05T22:48:04.416Z,68.93
2019-03-05T22:50:35.661Z,69.40
2019-03-05T22:53:07.003Z,69.75
2019-03-05T22:55:38.382Z,69.63
2019-03-05T22:58:09.710Z,69.48
2019-03-05T23:01:06.613Z,68.89
2019-03-05T23:04:01.150Z,68.37
2019-03-05T23:06:32.718Z,68.79
2019-03-05T23:09:06.847Z,68.71
2019-03-05T23:11:40.190Z,68.99
2019-03-05T23:14:11.476Z,68.70
2019-03-05T23:16:43.022Z,69.20
2019-03-05T23:19:16.508Z,68.94
2019-03-05T23:21:47.636Z,68.78
2019-03-05T23:24:18.891Z,68.86
2019-03-05T23:26:50.177Z,68.89
2019-03-05T23:29:27.567Z,68.84
2019-03-05T23:32:00.551Z,68.67
2019-03-05T23:34:32.377Z,68.46
2019-03-05T23:37:03.623Z,68.40
2019-03-05T23:39:35.281Z,68.59
2019-03-05T23:42:06.346Z,68.63
2019-03-05T23:44:38.276Z,68.50
2019-03-05T23:47:10.593Z,68.40
2019-03-05T23:49:43.279Z,68.54
2019-03-05T23:52:14.683Z,68.25
2019-03-05T23:54:45.998Z,68.28
2019-03-05T23:57:17.277Z,68.52
2019-03-05T23:59:48.527Z,68.57
